sensor_id;sensor_type;location;lat;lon;timestamp;P1;durP1;ratioP1;P2;durP2;ratioP2
1026;SDS011;502;48.746;9.214;2023-02-11T00:00:17;29.17;;;17.47;;
1026;SDS011;502;48.746;9.214;2023-02-11T00:02:43;27.93;;;19.70;;
1026;SDS011;502;48.746;9.214;2023-02-11T00:05:10;32.10;;;19.97;;
1026;SDS011;502;48.746;9.214;2023-02-11T00:07:37;29.77;;;19.00;;
1026;SDS011;502;48.746;9.214;2023-02-11T00:10:04;28.90;;;18.93;;
1026;SDS011;502;48.746;9.214;2023-02-11T00:12:32;28.00;;;19.80;;
1026;SDS011;502;48.746;9.214;2023-02-11T00:14:58;32.30;;;21.87;;
1026;SDS011;502;48.746;9.214;2023-02-11T00:17:26;32.20;;;19.37;;
1026;SDS011;502;48.746;9.214;2023-02-11T00:19:53;29.80;;;20.03;;
1026;SDS011;502;48.746;9.214;2023-02-11T00:22:20;30.07;;;18.87;;
1026;SDS011;502;48.746;9.214;2023-02-11T00:24:46;27.73;;;19.07;;
1026;SDS011;502;48.746;9.214;2023-02-11T00:27:13;32.07;;;20.50;;
1026;SDS011;502;48.746;9.214;2023-02-11T00:29:40;34.47;;;20.20;;
1026;SDS011;502;48.746;9.214;2023-02-11T00:32:06;32.33;;;18.63;;
1026;SDS011;502;48.746;9.214;2023-02-11T00:34:35;28.83;;;18.40;;
1026;SDS011;502;48.746;9.214;2023-02-11T00:37:02;32.23;;;18.40;;
1026;SDS011;502;48.746;9.214;2023-02-11T00:39:29;32.20;;;21.77;;
1026;SDS011;502;48.746;9.214;2023-02-11T00:41:55;23.43;;;18.90;;
1026;SDS011;502;48.746;9.214;2023-02-11T00:44:22;26.20;;;18.70;;
1026;SDS011;502;48.746;9.214;2023-02-11T00:46:49;27.73;;;19.27;;
1026;SDS011;502;48.746;9.214;2023-02-11T00:49:16;29.83;;;19.27;;
1026;SDS011;502;48.746;9.214;2023-02-11T00:51:44;32.57;;;20.43;;
1026;SDS011;502;48.746;9.214;2023-02-11T00:54:11;30.93;;;19.27;;
1026;SDS011;502;48.746;9.214;2023-02-11T00:56:37;26.60;;;17.70;;
1026;SDS011;502;48.746;9.214;2023-02-11T00:59:04;25.77;;;19.30;;
1026;SDS011;502;48.746;9.214;2023-02-11T01:01:31;28.37;;;19.07;;
1026;SDS011;502;48.746;9.214;2023-02-11T01:03:58;33.00;;;20.20;;
1026;SDS011;502;48.746;9.214;2023-02-11T01:06:25;33.17;;;19.40;;
1026;SDS011;502;48.746;9.214;2023-02-11T01:08:53;31.73;;;19.67;;
1026;SDS011;502;48.746;9.214;2023-02-11T01:11:20;32.83;;;20.10;;
1026;SDS011;502;48.746;9.214;2023-02-11T01:13:48;28.90;;;19.77;;
1026;SDS011;502;48.746;9.214;2023-02-11T01:16:16;28.17;;;19.87;;
1026;SDS011;502;48.746;9.214;2023-02-11T01:18:44;28.17;;;20.00;;
1026;SDS011;502;48.746;9.214;2023-02-11T01:21:11;30.87;;;20.40;;
1026;SDS011;502;48.746;9.214;2023-02-11T01:23:39;29.57;;;19.60;;
1026;SDS011;502;48.746;9.214;2023-02-11T01:26:07;27.63;;;19.07;;
1026;SDS011;502;48.746;9.214;2023-02-11T01:28:33;28.20;;;19.47;;
1026;SDS011;502;48.746;9.214;2023-02-11T01:31:00;28.10;;;19.77;;
1026;SDS011;502;48.746;9.214;2023-02-11T01:33:27;33.87;;;19.37;;
1026;SDS011;502;48.746;9.214;2023-02-11T01:35:54;27.60;;;19.97;;
1026;SDS011;502;48.746;9.214;2023-02-11T01:38:26;29.07;;;19.37;;
1026;SDS011;502;48.746;9.214;2023-02-11T01:40:54;32.20;;;21.20;;
1026;SDS011;502;48.746;9.214;2023-02-11T01:43:25;30.53;;;19.17;;
1026;SDS011;502;48.746;9.214;2023-02-11T01:45:56;29.23;;;20.37;;
1026;SDS011;502;48.746;9.214;2023-02-11T01:48:26;27.13;;;19.13;;
1026;SDS011;502;48.746;9.214;2023-02-11T01:50:56;30.13;;;18.67;;
1026;SDS011;502;48.746;9.214;2023-02-11T01:53:26;28.20;;;19.60;;
1026;SDS011;502;48.746;9.214;2023-02-11T01:56:12;27.87;;;19.93;;
1026;SDS011;502;48.746;9.214;2023-02-11T01:59:06;29.63;;;20.43;;
1026;SDS011;502;48.746;9.214;2023-02-11T02:01:40;27.33;;;18.30;;
1026;SDS011;502;48.746;9.214;2023-02-11T02:04:11;31.37;;;20.97;;
1026;SDS011;502;48.746;9.214;2023-02-11T02:06:39;28.80;;;19.83;;
1026;SDS011;502;48.746;9.214;2023-02-11T02:09:10;30.30;;;19.87;;
1026;SDS011;502;48.746;9.214;2023-02-11T02:11:41;31.27;;;21.00;;
1026;SDS011;502;48.746;9.214;2023-02-11T02:14:09;35.90;;;22.90;;
1026;SDS011;502;48.746;9.214;2023-02-11T02:16:36;34.10;;;21.90;;
1026;SDS011;502;48.746;9.214;2023-02-11T02:19:09;30.23;;;20.10;;
1026;SDS011;502;48.746;9.214;2023-02-11T02:21:56;33.90;;;20.30;;
1026;SDS011;502;48.746;9.214;2023-02-11T02:24:55;30.57;;;20.00;;
1026;SDS011;502;48.746;9.214;2023-02-11T02:30:19;26.33;;;17.80;;
1026;SDS011;502;48.746;9.214;2023-02-11T02:33:06;34.17;;;19.57;;
1026;SDS011;502;48.746;9.214;2023-02-11T02:35:41;27.33;;;19.80;;
1026;SDS011;502;48.746;9.214;2023-02-11T02:38:14;29.23;;;19.03;;
1026;SDS011;502;48.746;9.214;2023-02-11T02:40:47;29.50;;;19.10;;
1026;SDS011;502;48.746;9.214;2023-02-11T02:43:15;27.00;;;20.10;;
1026;SDS011;502;48.746;9.214;2023-02-11T02:45:42;28.10;;;19.87;;
1026;SDS011;502;48.746;9.214;2023-02-11T02:48:22;33.73;;;20.10;;
1026;SDS011;502;48.746;9.214;2023-02-11T02:50:51;25.40;;;18.33;;
1026;SDS011;502;48.746;9.214;2023-02-11T02:53:23;28.60;;;18.73;;
1026;SDS011;502;48.746;9.214;2023-02-11T02:55:55;30.03;;;18.67;;
1026;SDS011;502;48.746;9.214;2023-02-11T03:01:19;29.67;;;19.17;;
1026;SDS011;502;48.746;9.214;2023-02-11T03:03:53;30.57;;;19.83;;
1026;SDS011;502;48.746;9.214;2023-02-11T03:06:25;26.23;;;17.60;;
1026;SDS011;502;48.746;9.214;2023-02-11T03:08:56;29.90;;;19.70;;
1026;SDS011;502;48.746;9.214;2023-02-11T03:11:26;31.53;;;20.03;;
1026;SDS011;502;48.746;9.214;2023-02-11T03:13:54;28.33;;;20.13;;
1026;SDS011;502;48.746;9.214;2023-02-11T03:16:23;27.20;;;18.73;;
1026;SDS011;502;48.746;9.214;2023-02-11T03:18:54;27.83;;;19.63;;
1026;SDS011;502;48.746;9.214;2023-02-11T03:21:22;30.70;;;20.00;;
1026;SDS011;502;48.746;9.214;2023-02-11T03:23:51;27.43;;;19.37;;
1026;SDS011;502;48.746;9.214;2023-02-11T03:26:22;28.60;;;18.80;;
1026;SDS011;502;48.746;9.214;2023-02-11T03:28:52;33.00;;;19.33;;
1026;SDS011;502;48.746;9.214;2023-02-11T03:31:24;29.47;;;19.10;;
1026;SDS011;502;48.746;9.214;2023-02-11T03:33:56;25.67;;;18.30;;
1026;SDS011;502;48.746;9.214;2023-02-11T03:36:28;27.47;;;18.70;;
1026;SDS011;502;48.746;9.214;2023-02-11T03:38:58;27.30;;;19.40;;
1026;SDS011;502;48.746;9.214;2023-02-11T03:41:25;28.60;;;18.57;;
1026;SDS011;502;48.746;9.214;2023-02-11T03:43:53;24.40;;;18.67;;
1026;SDS011;502;48.746;9.214;2023-02-11T03:46:22;26.83;;;18.70;;
1026;SDS011;502;48.746;9.214;2023-02-11T03:48:58;25.40;;;18.73;;
1026;SDS011;502;48.746;9.214;2023-02-11T03:51:27;28.50;;;17.60;;
1026;SDS011;502;48.746;9.214;2023-02-11T03:53:54;27.60;;;18.67;;
1026;SDS011;502;48.746;9.214;2023-02-11T03:56:25;28.47;;;19.03;;
1026;SDS011;502;48.746;9.214;2023-02-11T03:58:53;27.57;;;17.70;;
1026;SDS011;502;48.746;9.214;2023-02-11T04:01:19;27.37;;;18.43;;
1026;SDS011;502;48.746;9.214;2023-02-11T04:03:46;29.27;;;20.27;;
1026;SDS011;502;48.746;9.214;2023-02-11T04:06:14;27.77;;;18.60;;
1026;SDS011;502;48.746;9.214;2023-02-11T04:08:41;30.50;;;18.20;;
1026;SDS011;502;48.746;9.214;2023-02-11T04:11:08;23.87;;;18.10;;
1026;SDS011;502;48.746;9.214;2023-02-11T04:13:34;21.97;;;17.57;;
1026;SDS011;502;48.746;9.214;2023-02-11T04:16:01;27.63;;;17.90;;
1026;SDS011;502;48.746;9.214;2023-02-11T04:18:30;25.10;;;18.10;;
1026;SDS011;502;48.746;9.214;2023-02-11T04:20:56;26.17;;;18.30;;
1026;SDS011;502;48.746;9.214;2023-02-11T04:23:25;32.57;;;19.23;;
1026;SDS011;502;48.746;9.214;2023-02-11T04:25:51;28.07;;;18.53;;
1026;SDS011;502;48.746;9.214;2023-02-11T04:28:18;24.43;;;17.20;;
1026;SDS011;502;48.746;9.214;2023-02-11T04:30:45;24.87;;;18.40;;
1026;SDS011;502;48.746;9.214;2023-02-11T04:33:11;26.10;;;19.13;;
1026;SDS011;502;48.746;9.214;2023-02-11T04:35:38;25.60;;;17.80;;
1026;SDS011;502;48.746;9.214;2023-02-11T04:38:05;25.70;;;17.90;;
1026;SDS011;502;48.746;9.214;2023-02-11T04:40:33;27.87;;;18.87;;
1026;SDS011;502;48.746;9.214;2023-02-11T04:42:59;30.50;;;18.63;;
1026;SDS011;502;48.746;9.214;2023-02-11T04:45:26;27.27;;;18.47;;
1026;SDS011;502;48.746;9.214;2023-02-11T04:47:52;28.97;;;19.13;;
1026;SDS011;502;48.746;9.214;2023-02-11T04:50:19;23.47;;;18.07;;
1026;SDS011;502;48.746;9.214;2023-02-11T04:52:46;30.37;;;19.40;;
1026;SDS011;502;48.746;9.214;2023-02-11T04:55:13;28.43;;;19.80;;
1026;SDS011;502;48.746;9.214;2023-02-11T04:57:41;26.20;;;18.17;;
1026;SDS011;502;48.746;9.214;2023-02-11T05:00:08;28.00;;;20.20;;
1026;SDS011;502;48.746;9.214;2023-02-11T05:02:35;25.10;;;18.60;;
1026;SDS011;502;48.746;9.214;2023-02-11T05:05:02;27.93;;;18.50;;
1026;SDS011;502;48.746;9.214;2023-02-11T05:07:30;25.67;;;18.47;;
1026;SDS011;502;48.746;9.214;2023-02-11T05:09:57;26.10;;;20.20;;
1026;SDS011;502;48.746;9.214;2023-02-11T05:12:23;31.83;;;19.80;;
1026;SDS011;502;48.746;9.214;2023-02-11T05:14:51;30.93;;;20.00;;
1026;SDS011;502;48.746;9.214;2023-02-11T05:17:18;27.23;;;18.90;;
1026;SDS011;502;48.746;9.214;2023-02-11T05:19:45;28.23;;;20.67;;
1026;SDS011;502;48.746;9.214;2023-02-11T05:22:11;31.67;;;20.77;;
1026;SDS011;502;48.746;9.214;2023-02-11T05:24:38;30.70;;;20.90;;
1026;SDS011;502;48.746;9.214;2023-02-11T05:27:05;29.87;;;20.47;;
1026;SDS011;502;48.746;9.214;2023-02-11T05:29:32;27.90;;;20.50;;
1026;SDS011;502;48.746;9.214;2023-02-11T05:32:00;31.63;;;20.73;;
1026;SDS011;502;48.746;9.214;2023-02-11T05:34:26;30.47;;;21.00;;
1026;SDS011;502;48.746;9.214;2023-02-11T05:36:53;26.53;;;19.93;;
1026;SDS011;502;48.746;9.214;2023-02-11T05:39:20;29.73;;;21.07;;
1026;SDS011;502;48.746;9.214;2023-02-11T05:41:46;28.00;;;20.67;;
1026;SDS011;502;48.746;9.214;2023-02-11T05:44:13;24.97;;;20.50;;
1026;SDS011;502;48.746;9.214;2023-02-11T05:46:40;29.87;;;20.80;;
1026;SDS011;502;48.746;9.214;2023-02-11T05:49:08;28.07;;;21.00;;
1026;SDS011;502;48.746;9.214;2023-02-11T05:51:34;31.80;;;21.77;;
1026;SDS011;502;48.746;9.214;2023-02-11T05:54:01;28.77;;;19.67;;
1026;SDS011;502;48.746;9.214;2023-02-11T05:56:28;29.73;;;20.97;;
1026;SDS011;502;48.746;9.214;2023-02-11T05:58:55;29.50;;;20.83;;
1026;SDS011;502;48.746;9.214;2023-02-11T06:01:24;31.13;;;21.27;;
1026;SDS011;502;48.746;9.214;2023-02-11T06:03:50;31.07;;;20.67;;
1026;SDS011;502;48.746;9.214;2023-02-11T06:06:18;32.27;;;20.10;;
1026;SDS011;502;48.746;9.214;2023-02-11T06:08:45;28.00;;;20.63;;
1026;SDS011;502;48.746;9.214;2023-02-11T06:11:13;30.17;;;19.97;;
1026;SDS011;502;48.746;9.214;2023-02-11T06:13:40;27.70;;;20.27;;
1026;SDS011;502;48.746;9.214;2023-02-11T06:16:06;32.57;;;20.83;;
1026;SDS011;502;48.746;9.214;2023-02-11T06:18:33;27.90;;;19.20;;
1026;SDS011;502;48.746;9.214;2023-02-11T06:21:00;28.90;;;19.17;;
1026;SDS011;502;48.746;9.214;2023-02-11T06:23:28;26.77;;;17.43;;
1026;SDS011;502;48.746;9.214;2023-02-11T06:25:59;26.83;;;19.53;;
1026;SDS011;502;48.746;9.214;2023-02-11T06:28:27;23.70;;;17.37;;
1026;SDS011;502;48.746;9.214;2023-02-11T06:30:55;21.63;;;16.03;;
1026;SDS011;502;48.746;9.214;2023-02-11T06:33:22;28.00;;;18.73;;
1026;SDS011;502;48.746;9.214;2023-02-11T06:35:49;21.70;;;17.57;;
1026;SDS011;502;48.746;9.214;2023-02-11T06:38:15;21.53;;;16.27;;
1026;SDS011;502;48.746;9.214;2023-02-11T06:40:46;23.80;;;15.80;;
1026;SDS011;502;48.746;9.214;2023-02-11T06:43:13;21.17;;;16.00;;
1026;SDS011;502;48.746;9.214;2023-02-11T06:45:40;25.83;;;16.03;;
1026;SDS011;502;48.746;9.214;2023-02-11T06:48:07;21.00;;;15.50;;
1026;SDS011;502;48.746;9.214;2023-02-11T06:50:34;27.50;;;18.27;;
1026;SDS011;502;48.746;9.214;2023-02-11T06:53:01;25.33;;;17.27;;
1026;SDS011;502;48.746;9.214;2023-02-11T06:55:27;21.43;;;16.27;;
1026;SDS011;502;48.746;9.214;2023-02-11T06:57:55;23.90;;;15.97;;
1026;SDS011;502;48.746;9.214;2023-02-11T07:00:22;27.30;;;18.90;;
1026;SDS011;502;48.746;9.214;2023-02-11T07:02:50;23.90;;;18.00;;
1026;SDS011;502;48.746;9.214;2023-02-11T07:05:17;23.70;;;17.30;;
1026;SDS011;502;48.746;9.214;2023-02-11T07:07:44;20.80;;;16.07;;
1026;SDS011;502;48.746;9.214;2023-02-11T07:10:16;24.40;;;17.53;;
1026;SDS011;502;48.746;9.214;2023-02-11T07:12:43;27.70;;;18.23;;
1026;SDS011;502;48.746;9.214;2023-02-11T07:15:11;29.30;;;18.20;;
1026;SDS011;502;48.746;9.214;2023-02-11T07:17:40;27.23;;;19.60;;
1026;SDS011;502;48.746;9.214;2023-02-11T07:20:07;23.93;;;17.40;;
1026;SDS011;502;48.746;9.214;2023-02-11T07:22:36;26.47;;;17.83;;
1026;SDS011;502;48.746;9.214;2023-02-11T07:25:03;26.97;;;19.63;;
1026;SDS011;502;48.746;9.214;2023-02-11T07:27:31;30.47;;;20.43;;
1026;SDS011;502;48.746;9.214;2023-02-11T07:29:57;26.37;;;19.27;;
1026;SDS011;502;48.746;9.214;2023-02-11T07:32:26;27.70;;;19.10;;
1026;SDS011;502;48.746;9.214;2023-02-11T07:34:53;27.77;;;18.53;;
1026;SDS011;502;48.746;9.214;2023-02-11T07:37:20;29.90;;;19.70;;
1026;SDS011;502;48.746;9.214;2023-02-11T07:39:47;28.73;;;20.07;;
1026;SDS011;502;48.746;9.214;2023-02-11T07:42:13;27.23;;;19.57;;
1026;SDS011;502;48.746;9.214;2023-02-11T07:44:40;24.10;;;17.90;;
1026;SDS011;502;48.746;9.214;2023-02-11T07:47:07;26.40;;;17.67;;
1026;SDS011;502;48.746;9.214;2023-02-11T07:49:35;28.77;;;20.40;;
1026;SDS011;502;48.746;9.214;2023-02-11T07:52:02;32.30;;;21.33;;
1026;SDS011;502;48.746;9.214;2023-02-11T07:54:29;27.03;;;19.53;;
1026;SDS011;502;48.746;9.214;2023-02-11T07:56:55;23.60;;;17.47;;
1026;SDS011;502;48.746;9.214;2023-02-11T07:59:22;25.57;;;18.20;;
1026;SDS011;502;48.746;9.214;2023-02-11T08:01:49;27.67;;;19.67;;
1026;SDS011;502;48.746;9.214;2023-02-11T08:04:16;21.57;;;15.97;;
1026;SDS011;502;48.746;9.214;2023-02-11T08:06:44;24.57;;;18.30;;
1026;SDS011;502;48.746;9.214;2023-02-11T08:09:13;25.20;;;17.03;;
1026;SDS011;502;48.746;9.214;2023-02-11T08:11:41;23.93;;;17.63;;
1026;SDS011;502;48.746;9.214;2023-02-11T08:14:08;26.43;;;18.33;;
1026;SDS011;502;48.746;9.214;2023-02-11T08:16:36;24.53;;;18.90;;
1026;SDS011;502;48.746;9.214;2023-02-11T08:19:04;26.50;;;17.70;;
1026;SDS011;502;48.746;9.214;2023-02-11T08:21:31;23.90;;;17.60;;
1026;SDS011;502;48.746;9.214;2023-02-11T08:24:01;22.90;;;18.40;;
1026;SDS011;502;48.746;9.214;2023-02-11T08:26:28;25.13;;;18.60;;
1026;SDS011;502;48.746;9.214;2023-02-11T08:28:57;22.80;;;17.50;;
1026;SDS011;502;48.746;9.214;2023-02-11T08:31:24;25.33;;;17.27;;
1026;SDS011;502;48.746;9.214;2023-02-11T08:33:51;25.87;;;18.10;;
1026;SDS011;502;48.746;9.214;2023-02-11T08:36:22;26.73;;;18.30;;
1026;SDS011;502;48.746;9.214;2023-02-11T08:38:52;25.20;;;18.10;;
1026;SDS011;502;48.746;9.214;2023-02-11T08:41:20;22.13;;;16.73;;
1026;SDS011;502;48.746;9.214;2023-02-11T08:43:47;18.90;;;16.40;;
1026;SDS011;502;48.746;9.214;2023-02-11T08:46:15;20.77;;;16.33;;
1026;SDS011;502;48.746;9.214;2023-02-11T08:48:43;24.40;;;17.40;;
1026;SDS011;502;48.746;9.214;2023-02-11T08:51:12;20.57;;;16.33;;
1026;SDS011;502;48.746;9.214;2023-02-11T08:53:40;18.27;;;15.33;;
1026;SDS011;502;48.746;9.214;2023-02-11T08:56:07;22.30;;;16.60;;
1026;SDS011;502;48.746;9.214;2023-02-11T08:58:36;22.07;;;16.97;;
1026;SDS011;502;48.746;9.214;2023-02-11T09:01:07;28.83;;;19.90;;
1026;SDS011;502;48.746;9.214;2023-02-11T09:03:34;22.77;;;17.27;;
1026;SDS011;502;48.746;9.214;2023-02-11T09:06:03;21.23;;;16.70;;
1026;SDS011;502;48.746;9.214;2023-02-11T09:08:32;23.80;;;17.30;;
1026;SDS011;502;48.746;9.214;2023-02-11T09:10:59;24.53;;;17.60;;
1026;SDS011;502;48.746;9.214;2023-02-11T09:13:26;24.93;;;18.33;;
1026;SDS011;502;48.746;9.214;2023-02-11T09:15:54;24.90;;;18.57;;
1026;SDS011;502;48.746;9.214;2023-02-11T09:18:20;26.90;;;20.57;;
1026;SDS011;502;48.746;9.214;2023-02-11T09:20:47;20.00;;;16.77;;
1026;SDS011;502;48.746;9.214;2023-02-11T09:23:14;26.10;;;20.50;;
1026;SDS011;502;48.746;9.214;2023-02-11T09:25:40;26.20;;;19.57;;
1026;SDS011;502;48.746;9.214;2023-02-11T09:28:08;26.07;;;19.40;;
1026;SDS011;502;48.746;9.214;2023-02-11T09:30:35;24.93;;;20.03;;
1026;SDS011;502;48.746;9.214;2023-02-11T09:33:04;32.80;;;19.50;;
1026;SDS011;502;48.746;9.214;2023-02-11T09:35:31;26.13;;;19.63;;
1026;SDS011;502;48.746;9.214;2023-02-11T09:37:58;25.80;;;19.40;;
1026;SDS011;502;48.746;9.214;2023-02-11T09:40:25;27.20;;;19.13;;
1026;SDS011;502;48.746;9.214;2023-02-11T09:42:52;25.03;;;20.33;;
1026;SDS011;502;48.746;9.214;2023-02-11T09:45:23;27.63;;;19.93;;
1026;SDS011;502;48.746;9.214;2023-02-11T09:47:52;28.40;;;20.10;;
1026;SDS011;502;48.746;9.214;2023-02-11T09:50:24;25.30;;;18.90;;
1026;SDS011;502;48.746;9.214;2023-02-11T09:52:55;29.10;;;20.83;;
1026;SDS011;502;48.746;9.214;2023-02-11T09:55:24;29.93;;;22.90;;
1026;SDS011;502;48.746;9.214;2023-02-11T09:57:54;27.57;;;22.50;;
1026;SDS011;502;48.746;9.214;2023-02-11T10:00:22;29.37;;;22.40;;
1026;SDS011;502;48.746;9.214;2023-02-11T10:06:05;30.13;;;19.43;;
1026;SDS011;502;48.746;9.214;2023-02-11T10:08:40;27.47;;;20.30;;
1026;SDS011;502;48.746;9.214;2023-02-11T10:11:11;23.27;;;19.43;;
1026;SDS011;502;48.746;9.214;2023-02-11T10:13:44;23.20;;;18.40;;
1026;SDS011;502;48.746;9.214;2023-02-11T10:16:25;22.10;;;17.60;;
1026;SDS011;502;48.746;9.214;2023-02-11T10:19:00;21.00;;;17.00;;
1026;SDS011;502;48.746;9.214;2023-02-11T10:21:41;23.50;;;17.93;;
1026;SDS011;502;48.746;9.214;2023-02-11T10:24:15;22.73;;;17.27;;
1026;SDS011;502;48.746;9.214;2023-02-11T10:26:43;21.97;;;16.87;;
1026;SDS011;502;48.746;9.214;2023-02-11T10:29:12;21.50;;;17.60;;
1026;SDS011;502;48.746;9.214;2023-02-11T10:31:43;22.37;;;16.87;;
1026;SDS011;502;48.746;9.214;2023-02-11T10:34:11;22.20;;;17.00;;
1026;SDS011;502;48.746;9.214;2023-02-11T10:36:40;17.47;;;13.77;;
1026;SDS011;502;48.746;9.214;2023-02-11T10:39:10;18.67;;;14.70;;
1026;SDS011;502;48.746;9.214;2023-02-11T10:41:38;18.00;;;15.30;;
1026;SDS011;502;48.746;9.214;2023-02-11T10:44:10;22.03;;;16.40;;
1026;SDS011;502;48.746;9.214;2023-02-11T10:46:45;18.87;;;14.63;;
1026;SDS011;502;48.746;9.214;2023-02-11T10:49:13;18.30;;;14.67;;
1026;SDS011;502;48.746;9.214;2023-02-11T10:52:11;16.27;;;12.30;;
1026;SDS011;502;48.746;9.214;2023-02-11T10:54:40;15.67;;;13.40;;
1026;SDS011;502;48.746;9.214;2023-02-11T10:57:11;16.87;;;13.20;;
1026;SDS011;502;48.746;9.214;2023-02-11T10:59:44;17.03;;;12.10;;
1026;SDS011;502;48.746;9.214;2023-02-11T11:02:18;19.43;;;13.20;;
1026;SDS011;502;48.746;9.214;2023-02-11T11:04:47;17.23;;;13.50;;
1026;SDS011;502;48.746;9.214;2023-02-11T11:07:17;14.97;;;12.00;;
1026;SDS011;502;48.746;9.214;2023-02-11T11:09:48;20.60;;;12.97;;
1026;SDS011;502;48.746;9.214;2023-02-11T11:12:26;17.97;;;13.70;;
1026;SDS011;502;48.746;9.214;2023-02-11T11:15:00;15.37;;;12.80;;
1026;SDS011;502;48.746;9.214;2023-02-11T11:17:28;14.90;;;11.70;;
1026;SDS011;502;48.746;9.214;2023-02-11T11:22:42;17.20;;;14.70;;
1026;SDS011;502;48.746;9.214;2023-02-11T11:25:22;22.93;;;19.50;;
1026;SDS011;502;48.746;9.214;2023-02-11T11:27:51;23.70;;;19.87;;
1026;SDS011;502;48.746;9.214;2023-02-11T11:30:20;29.40;;;21.10;;
1026;SDS011;502;48.746;9.214;2023-02-11T11:32:48;25.30;;;19.60;;
1026;SDS011;502;48.746;9.214;2023-02-11T11:35:22;20.40;;;16.80;;
1026;SDS011;502;48.746;9.214;2023-02-11T11:37:53;23.37;;;17.77;;
1026;SDS011;502;48.746;9.214;2023-02-11T11:40:22;24.20;;;18.97;;
1026;SDS011;502;48.746;9.214;2023-02-11T11:43:04;24.03;;;19.17;;
1026;SDS011;502;48.746;9.214;2023-02-11T11:45:34;21.83;;;17.50;;
1026;SDS011;502;48.746;9.214;2023-02-11T11:48:02;22.03;;;18.03;;
1026;SDS011;502;48.746;9.214;2023-02-11T11:50:31;21.30;;;17.77;;
1026;SDS011;502;48.746;9.214;2023-02-11T11:53:02;22.90;;;17.80;;
1026;SDS011;502;48.746;9.214;2023-02-11T11:55:32;40.13;;;17.50;;
1026;SDS011;502;48.746;9.214;2023-02-11T11:58:02;18.83;;;14.63;;
1026;SDS011;502;48.746;9.214;2023-02-11T12:00:31;18.90;;;16.37;;
1026;SDS011;502;48.746;9.214;2023-02-11T12:03:17;20.27;;;17.07;;
1026;SDS011;502;48.746;9.214;2023-02-11T12:05:58;19.33;;;16.20;;
1026;SDS011;502;48.746;9.214;2023-02-11T12:08:35;18.23;;;15.17;;
1026;SDS011;502;48.746;9.214;2023-02-11T12:11:11;18.33;;;15.50;;
1026;SDS011;502;48.746;9.214;2023-02-11T12:13:48;21.33;;;15.50;;
1026;SDS011;502;48.746;9.214;2023-02-11T12:16:26;20.03;;;15.53;;
1026;SDS011;502;48.746;9.214;2023-02-11T12:19:08;17.60;;;15.77;;
1026;SDS011;502;48.746;9.214;2023-02-11T12:21:50;23.20;;;15.37;;
1026;SDS011;502;48.746;9.214;2023-02-11T12:24:27;23.87;;;15.47;;
1026;SDS011;502;48.746;9.214;2023-02-11T12:27:03;20.57;;;15.00;;
1026;SDS011;502;48.746;9.214;2023-02-11T12:29:35;19.37;;;14.30;;
1026;SDS011;502;48.746;9.214;2023-02-11T12:32:09;18.00;;;14.10;;
1026;SDS011;502;48.746;9.214;2023-02-11T12:37:40;19.20;;;14.30;;
1026;SDS011;502;48.746;9.214;2023-02-11T12:40:16;18.20;;;13.87;;
1026;SDS011;502;48.746;9.214;2023-02-11T12:42:49;17.33;;;12.70;;
1026;SDS011;502;48.746;9.214;2023-02-11T12:45:40;21.70;;;14.00;;
1026;SDS011;502;48.746;9.214;2023-02-11T12:48:29;15.20;;;13.60;;
1026;SDS011;502;48.746;9.214;2023-02-11T12:51:04;16.60;;;11.30;;
1026;SDS011;502;48.746;9.214;2023-02-11T12:53:41;12.97;;;10.37;;
1026;SDS011;502;48.746;9.214;2023-02-11T12:56:25;14.90;;;12.90;;
1026;SDS011;502;48.746;9.214;2023-02-11T12:58:57;13.33;;;9.40;;
1026;SDS011;502;48.746;9.214;2023-02-11T13:01:26;14.93;;;10.07;;
1026;SDS011;502;48.746;9.214;2023-02-11T13:03:56;14.20;;;9.80;;
1026;SDS011;502;48.746;9.214;2023-02-11T13:06:28;13.63;;;10.37;;
1026;SDS011;502;48.746;9.214;2023-02-11T13:08:59;12.73;;;9.53;;
1026;SDS011;502;48.746;9.214;2023-02-11T13:11:29;11.10;;;9.27;;
1026;SDS011;502;48.746;9.214;2023-02-11T13:14:02;11.60;;;9.60;;
1026;SDS011;502;48.746;9.214;2023-02-11T13:16:32;11.57;;;8.50;;
1026;SDS011;502;48.746;9.214;2023-02-11T13:19:02;10.53;;;8.90;;
1026;SDS011;502;48.746;9.214;2023-02-11T13:21:40;11.43;;;8.60;;
1026;SDS011;502;48.746;9.214;2023-02-11T13:24:16;12.20;;;8.33;;
1026;SDS011;502;48.746;9.214;2023-02-11T13:26:48;11.60;;;8.77;;
1026;SDS011;502;48.746;9.214;2023-02-11T13:29:22;12.33;;;8.40;;
1026;SDS011;502;48.746;9.214;2023-02-11T13:31:56;9.50;;;7.83;;
1026;SDS011;502;48.746;9.214;2023-02-11T13:37:20;11.93;;;8.10;;
1026;SDS011;502;48.746;9.214;2023-02-11T13:39:54;9.00;;;7.30;;
1026;SDS011;502;48.746;9.214;2023-02-11T13:42:23;10.27;;;8.20;;
1026;SDS011;502;48.746;9.214;2023-02-11T13:44:50;10.27;;;8.20;;
1026;SDS011;502;48.746;9.214;2023-02-11T13:47:21;10.47;;;8.93;;
1026;SDS011;502;48.746;9.214;2023-02-11T13:49:51;11.17;;;8.73;;
1026;SDS011;502;48.746;9.214;2023-02-11T13:52:20;12.37;;;8.30;;
1026;SDS011;502;48.746;9.214;2023-02-11T13:54:50;20.43;;;10.83;;
1026;SDS011;502;48.746;9.214;2023-02-11T13:57:26;11.73;;;9.13;;
1026;SDS011;502;48.746;9.214;2023-02-11T14:00:41;14.10;;;11.13;;
1026;SDS011;502;48.746;9.214;2023-02-11T14:03:20;16.50;;;12.77;;
1026;SDS011;502;48.746;9.214;2023-02-11T14:06:26;16.77;;;11.83;;
1026;SDS011;502;48.746;9.214;2023-02-11T14:12:29;19.90;;;13.23;;
1026;SDS011;502;48.746;9.214;2023-02-11T14:14:57;16.70;;;11.60;;
1026;SDS011;502;48.746;9.214;2023-02-11T14:17:29;14.33;;;11.83;;
1026;SDS011;502;48.746;9.214;2023-02-11T14:19:57;16.20;;;12.80;;
1026;SDS011;502;48.746;9.214;2023-02-11T14:22:25;14.07;;;11.20;;
1026;SDS011;502;48.746;9.214;2023-02-11T14:24:58;18.20;;;12.27;;
1026;SDS011;502;48.746;9.214;2023-02-11T14:27:28;17.77;;;13.17;;
1026;SDS011;502;48.746;9.214;2023-02-11T14:30:02;19.80;;;12.47;;
1026;SDS011;502;48.746;9.214;2023-02-11T14:32:53;18.83;;;14.30;;
1026;SDS011;502;48.746;9.214;2023-02-11T14:35:29;19.27;;;14.77;;
1026;SDS011;502;48.746;9.214;2023-02-11T14:38:00;16.90;;;13.47;;
1026;SDS011;502;48.746;9.214;2023-02-11T14:40:31;13.93;;;11.90;;
1026;SDS011;502;48.746;9.214;2023-02-11T14:43:03;21.50;;;13.03;;
1026;SDS011;502;48.746;9.214;2023-02-11T14:45:35;20.40;;;14.47;;
1026;SDS011;502;48.746;9.214;2023-02-11T14:48:03;17.27;;;12.77;;
1026;SDS011;502;48.746;9.214;2023-02-11T14:50:32;24.30;;;14.50;;
1026;SDS011;502;48.746;9.214;2023-02-11T14:53:02;19.30;;;13.37;;
1026;SDS011;502;48.746;9.214;2023-02-11T14:55:31;20.73;;;15.77;;
1026;SDS011;502;48.746;9.214;2023-02-11T14:58:10;17.97;;;13.20;;
1026;SDS011;502;48.746;9.214;2023-02-11T15:00:52;18.07;;;12.10;;
1026;SDS011;502;48.746;9.214;2023-02-11T15:03:24;16.73;;;12.50;;
1026;SDS011;502;48.746;9.214;2023-02-11T15:05:59;16.50;;;12.80;;
1026;SDS011;502;48.746;9.214;2023-02-11T15:08:51;13.80;;;11.07;;
1026;SDS011;502;48.746;9.214;2023-02-11T15:11:21;16.53;;;11.83;;
1026;SDS011;502;48.746;9.214;2023-02-11T15:13:50;17.57;;;11.70;;
1026;SDS011;502;48.746;9.214;2023-02-11T15:16:18;14.33;;;10.53;;
1026;SDS011;502;48.746;9.214;2023-02-11T15:18:47;17.97;;;10.87;;
1026;SDS011;502;48.746;9.214;2023-02-11T15:21:19;14.70;;;11.53;;
1026;SDS011;502;48.746;9.214;2023-02-11T15:23:53;15.30;;;10.47;;
1026;SDS011;502;48.746;9.214;2023-02-11T15:26:21;13.00;;;10.33;;
1026;SDS011;502;48.746;9.214;2023-02-11T15:28:48;15.80;;;10.90;;
1026;SDS011;502;48.746;9.214;2023-02-11T15:31:19;17.70;;;11.10;;
1026;SDS011;502;48.746;9.214;2023-02-11T15:33:47;19.40;;;12.40;;
1026;SDS011;502;48.746;9.214;2023-02-11T15:36:14;14.30;;;11.53;;
1026;SDS011;502;48.746;9.214;2023-02-11T15:38:42;15.30;;;11.87;;
1026;SDS011;502;48.746;9.214;2023-02-11T15:43:58;17.77;;;13.30;;